Time;durP1;ratioP1;P1;durP2;ratioP2;P2;SDS_P1;SDS_P2;PMS_P1;PMS_P2;Temp;Humidity;BMP_temperature;BMP_pressure;BME280_temperature;BME280_humidity;BME280_pressure;Samples;Min_cycle;Max_cycle;Signal;HPM_P1;HPM_P2
2022/05/23 00:02:18;;;;;;;10.00;4.40;;;;;;;9.09;56.40;98862.71;106156;1276;23470;-82
2022/05/23 00:05:02;;;;;;;;;;;;;;;;;;;;;
2022/05/23 00:08:32;;;;;;;;;;;;;;;;;;;;;
2022/05/23 00:11:28;;;;;;;10.90;3.70;;;;;;;8.91;56.55;98858.44;103771;1282;2654050;-82
2022/05/23 00:14:46;;;;;;;12.20;3.90;;;;;;;8.86;56.59;98855.41;105508;1281;24458;-83
2022/05/23 00:17:48;;;;;;;12.10;3.80;;;;;;;8.83;56.58;98860.36;105888;1283;24023;-82
2022/05/23 00:21:07;;;;;;;10.70;4.00;;;;;;;8.85;56.65;98858.86;105584;1282;24220;-85
2022/05/23 00:23:54;;;;;;;12.40;5.40;;;;;;;8.86;56.72;98852.73;105634;1281;22687;-83
2022/05/23 00:27:40;;;;;;;14.10;5.70;;;;;;;8.89;57.01;98852.35;105666;1282;22559;-82
2022/05/23 00:30:01;;;;;;;14.80;6.00;;;;;;;8.86;57.20;98843.86;104949;1288;22655;-82
2022/05/23 00:36:03;;;;;;;15.60;5.40;;;;;;;8.73;57.28;98843.31;104949;1288;22773;-83
2022/05/23 00:38:53;;;;;;;;;;;;;;;;;;;;;
2022/05/23 00:45:23;;;;;;;11.80;4.60;;;;;;;8.37;57.82;98843.59;103972;1297;22618;-82
2022/05/23 00:48:21;;;;;;;11.50;4.40;;;;;;;8.37;57.78;98838.28;104234;1291;22654;-83
2022/05/23 00:51:34;;;;;;;12.30;4.40;;;;;;;8.41;57.83;98837.31;104545;1291;24328;-88
2022/05/23 00:54:35;;;;;;;9.90;4.20;;;;;;;8.48;57.77;98841.31;104601;1291;22643;-83
2022/05/23 00:58:06;;;;;;;;;;;;;;;;;;;;;
2022/05/23 01:00:58;;;;;;;10.20;4.60;;;;;;;8.51;57.76;98840.19;104441;1290;22871;-82
2022/05/23 01:04:11;;;;;;;;;;;;;;;;;;;;;
2022/05/23 01:07:23;;;;;;;;;;;;;;;;;;;;;
2022/05/23 01:10:23;;;;;;;16.20;4.90;;;;;;;8.45;58.27;98834.25;105137;1287;24265;-82
2022/05/23 01:13:25;;;;;;;;;;;;;;;;;;;;;
2022/05/23 01:16:11;;;;;;;12.50;4.60;;;;;;;8.28;58.29;98830.88;105200;1285;23953;-85
2022/05/23 01:19:01;;;;;;;12.30;4.90;;;;;;;8.23;58.64;98831.94;104986;1287;22585;-85
2022/05/23 01:21:58;;;;;;;11.80;4.50;;;;;;;8.27;58.52;98828.80;105629;1282;22558;-82
2022/05/23 01:25:17;;;;;;;13.40;5.10;;;;;;;8.18;58.80;98825.87;106056;1277;22595;-83
2022/05/23 01:28:37;;;;;;;;;;;;;;;;;;;;;
2022/05/23 01:31:52;;;;;;;12.50;5.10;;;;;;;8.10;58.79;98805.65;105967;1276;22539;-87
2022/05/23 01:34:52;;;;;;;11.80;4.80;;;;;;;8.13;58.99;98809.86;105957;1277;22688;-84
2022/05/23 01:37:54;;;;;;;9.80;4.00;;;;;;;8.14;58.81;98810.17;105799;1277;24410;-86
2022/05/23 01:40:45;;;;;;;11.10;3.90;;;;;;;8.14;58.63;98807.51;105745;1277;24303;-84
2022/05/23 01:43:25;;;;;;;11.20;4.60;;;;;;;8.16;58.79;98801.36;106011;1278;22534;-86
2022/05/23 01:46:38;;;;;;;11.30;4.20;;;;;;;8.16;58.81;98795.88;105908;1278;22544;-82
2022/05/23 01:49:11;;;;;;;10.60;4.50;;;;;;;8.15;58.74;98788.35;105984;1278;25430;-82
2022/05/23 01:51:52;;;;;;;11.20;3.90;;;;;;;8.11;58.80;98786.26;105519;1281;25222;-83
2022/05/23 01:55:03;;;;;;;;;;;;;;;;;;;;;
2022/05/23 01:57:35;;;;;;;13.50;4.40;;;;;;;7.96;58.90;98783.36;105795;1277;25237;-86
2022/05/23 02:03:30;;;;;;;;;;;;;;;;;;;;;
2022/05/23 02:06:21;;;;;;;11.30;4.70;;;;;;;7.77;59.18;98778.04;105824;1278;22531;-83
2022/05/23 02:09:35;;;;;;;9.30;3.70;;;;;;;7.69;59.25;98779.96;106016;1277;23918;-81
2022/05/23 02:12:31;;;;;;;12.40;3.90;;;;;;;7.66;59.17;98781.63;105589;1277;22820;-81
2022/05/23 02:15:07;;;;;;;9.70;3.70;;;;;;;7.66;59.20;98785.86;105591;1278;22855;-81
2022/05/23 02:18:14;;;;;;;9.50;4.20;;;;;;;7.68;59.36;98785.41;106025;1277;25604;-79
2022/05/23 02:20:55;;;;;;;12.70;4.60;;;;;;;7.62;59.48;98784.49;105871;1277;25321;-81
2022/05/23 02:23:56;;;;;;;11.10;4.10;;;;;;;7.50;59.38;98784.38;105596;1280;24260;-82
2022/05/23 02:26:32;;;;;;;9.60;4.00;;;;;;;7.43;59.69;98778.31;105773;1278;22546;-83
2022/05/23 02:29:18;;;;;;;10.00;3.70;;;;;;;7.42;59.55;98778.90;105522;1281;22540;-82
2022/05/23 02:32:10;;;;;;;10.70;4.10;;;;;;;7.38;59.51;98779.32;105588;1278;22582;-81
2022/05/23 02:35:19;;;;;;;12.10;3.60;;;;;;;7.36;59.36;98781.94;105622;1278;27597;-81
2022/05/23 02:38:14;;;;;;;11.40;3.50;;;;;;;7.34;59.78;98782.94;105718;1278;22543;-81
2022/05/23 02:40:50;;;;;;;9.50;3.50;;;;;;;7.37;59.65;98779.05;106173;1277;25417;-80
2022/05/23 02:43:18;;;;;;;10.30;3.60;;;;;;;7.38;59.55;98772.44;105734;1277;24199;-81
2022/05/23 02:46:29;;;;;;;9.80;3.40;;;;;;;7.39;59.70;98770.23;105855;1278;24298;-81
2022/05/23 02:49:20;;;;;;;;;;;;;;;;;;;;;
2022/05/23 02:52:11;;;;;;;9.70;3.50;;;;;;;7.36;59.74;98762.27;105911;1276;24297;-81
2022/05/23 02:55:00;;;;;;;8.80;3.70;;;;;;;7.31;59.77;98764.48;106030;1278;24217;-81
2022/05/23 02:57:30;;;;;;;9.00;3.60;;;;;;;7.22;59.84;98765.84;105686;1284;22524;-86
2022/05/23 03:00:48;;;;;;;10.30;4.40;;;;;;;7.11;60.13;98766.15;105721;1278;24347;-85
2022/05/23 03:03:45;;;;;;;10.50;4.00;;;;;;;7.09;60.26;98763.10;105962;1279;22544;-84
2022/05/23 03:06:33;;;;;;;7.60;3.20;;;;;;;7.13;59.89;98766.93;105594;1278;25314;-82
2022/05/23 03:09:41;;;;;;;8.30;3.60;;;;;;;7.16;60.00;98772.94;105720;1277;22575;-83
2022/05/23 03:13:22;;;;;;;;;;;;;;;;;;;;;
2022/05/23 03:16:02;;;;;;;9.00;3.50;;;;;;;7.14;60.15;98780.14;105218;1287;22605;-88
2022/05/23 03:18:35;;;;;;;8.10;3.30;;;;;;;7.13;60.17;98779.50;105346;1284;23059;-87
2022/05/23 03:27:29;;;;;;;10.00;3.60;;;;;;;7.15;60.27;98780.23;105214;1287;22548;-82
2022/05/23 03:30:21;;;;;;;9.10;3.70;;;;;;;7.19;60.51;98787.45;105211;1285;25256;-82
2022/05/23 03:32:58;;;;;;;10.60;3.50;;;;;;;7.25;60.53;98786.88;105333;1287;24239;-81
2022/05/23 03:35:35;;;;;;;10.90;3.40;;;;;;;7.34;60.79;98788.44;105129;1287;25252;-81
2022/05/23 03:38:24;;;;;;;8.70;3.50;;;;;;;7.47;61.03;98785.64;105149;1287;22565;-85
2022/05/23 03:41:19;;;;;;;9.70;3.30;;;;;;;7.59;61.25;98786.11;105313;1287;22553;-82
2022/05/23 03:44:04;;;;;;;8.90;3.60;;;;;;;7.70;61.37;98780.27;105176;1286;26744;-85
2022/05/23 03:46:54;;;;;;;10.00;3.50;;;;;;;7.85;61.31;98777.85;105382;1285;24417;-81
2022/05/23 03:49:48;;;;;;;9.40;3.20;;;;;;;7.97;61.10;98780.08;105196;1285;24295;-81
2022/05/23 03:52:54;;;;;;;11.50;3.50;;;;;;;8.07;60.69;98782.30;105492;1278;22565;-82
2022/05/23 03:55:44;;;;;;;10.30;3.70;;;;;;;8.13;60.90;98779.95;105881;1278;23190;-82
2022/05/23 03:58:37;;;;;;;14.90;3.40;;;;;;;8.19;60.68;98780.95;105750;1278;22574;-81
2022/05/23 04:01:45;;;;;;;9.00;3.10;;;;;;;8.28;60.65;98783.70;106324;1276;22534;-84
2022/05/23 04:04:30;;;;;;;13.80;3.90;;;;;;;8.34;60.57;98776.79;105898;1278;24192;-82
2022/05/23 04:08:08;;;;;;;14.20;3.80;;;;;;;8.46;60.50;98773.86;105782;1278;22555;-82
2022/05/23 04:10:47;;;;;;;9.60;3.90;;;;;;;8.68;60.48;98772.13;106079;1277;22849;-83
2022/05/23 04:13:34;;;;;;;9.10;3.50;;;;;;;8.94;60.46;98777.24;105636;1278;25310;-83
2022/05/23 04:16:04;;;;;;;11.30;3.70;;;;;;;9.21;60.31;98778.74;106193;1277;24285;-85
2022/05/23 04:19:05;;;;;;;12.60;4.40;;;;;;;9.44;60.30;98779.40;105680;1277;22596;-84
2022/05/23 04:21:48;;;;;;;10.20;4.00;;;;;;;9.73;60.22;98775.69;105956;1277;22534;-81
2022/05/23 04:25:03;;;;;;;;;;;;;;;;;;;;;
2022/05/23 04:27:56;;;;;;;12.00;4.70;;;;;;;10.25;60.26;98771.45;105675;1284;22559;-85
2022/05/23 04:30:47;;;;;;;10.60;3.50;;;;;;;10.47;60.55;98773.17;105365;1285;22716;-82
2022/05/23 04:36:58;;;;;;;10.50;3.90;;;;;;;10.95;60.55;98776.27;105974;1283;24244;-81
2022/05/23 04:40:30;;;;;;;9.20;3.60;;;;;;;11.16;60.64;98778.88;105522;1284;25324;-82
2022/05/23 04:43:20;;;;;;;10.40;4.30;;;;;;;11.38;60.70;98777.34;105702;1283;25460;-81
2022/05/23 04:46:08;;;;;;;12.00;3.70;;;;;;;11.57;60.66;98774.92;105729;1283;26895;-85
2022/05/23 04:52:14;;;;;;;10.20;4.20;;;;;;;11.93;60.39;98765.90;105238;1282;22537;-81
2022/05/23 04:55:47;;;;;;;;;;;;;;;;;;;;;
2022/05/23 04:58:15;;;;;;;13.90;4.60;;;;;;;12.37;60.41;98763.71;104975;1287;24290;-81
2022/05/23 05:00:54;;;;;;;15.20;5.00;;;;;;;12.53;60.32;98764.96;105495;1284;22606;-80
2022/05/23 05:03:29;;;;;;;13.40;4.50;;;;;;;12.68;60.25;98765.70;105642;1282;22559;-77
2022/05/23 05:05:58;;;;;;;12.50;4.80;;;;;;;12.81;60.19;98767.13;105287;1278;24215;-80
2022/05/23 05:08:47;;;;;;;11.10;4.40;;;;;;;12.88;59.93;98765.56;105219;1279;26672;-82
2022/05/23 05:11:22;;;;;;;13.10;4.70;;;;;;;12.96;59.83;98766.34;105611;1277;22596;-81
2022/05/23 05:14:22;;;;;;;13.80;4.70;;;;;;;13.09;59.98;98760.95;105851;1276;22658;-86
2022/05/23 05:16:54;;;;;;;14.80;4.60;;;;;;;13.25;60.05;98760.79;106211;1277;22742;-81
2022/05/23 05:19:22;;;;;;;17.00;5.80;;;;;;;13.44;60.19;98761.07;105787;1277;22880;-80
2022/05/23 05:21:55;;;;;;;12.80;4.60;;;;;;;13.64;60.07;98759.08;105845;1278;22568;-81
2022/05/23 05:24:27;;;;;;;13.30;4.20;;;;;;;13.82;59.86;98748.91;105879;1277;27056;-81
2022/05/23 05:27:34;;;;;;;9.90;4.00;;;;;;;14.03;59.77;98743.63;105738;1284;22662;-80
2022/05/23 05:30:13;;;;;;;9.30;3.20;;;;;;;14.22;59.78;98736.45;105465;1284;23025;-81
2022/05/23 05:32:58;;;;;;;13.10;3.00;;;;;;;14.46;59.74;98734.06;106225;1277;24292;-81
2022/05/23 05:35:42;;;;;;;9.60;3.00;;;;;;;14.67;59.68;98734.81;105803;1277;23843;-80
2022/05/23 05:38:27;;;;;;;8.00;2.70;;;;;;;14.85;59.55;98732.70;105700;1277;22573;-82
2022/05/23 05:41:13;;;;;;;10.40;3.00;;;;;;;15.01;59.47;98731.59;105887;1278;22550;-83
2022/05/23 05:43:51;;;;;;;8.70;2.90;;;;;;;15.18;59.28;98732.06;105719;1279;24276;-84
2022/05/23 05:46:34;;;;;;;9.20;2.60;;;;;;;15.37;59.26;98730.77;105937;1281;22537;-82
2022/05/23 05:49:11;;;;;;;9.60;2.90;;;;;;;15.54;59.09;98731.47;105734;1279;22558;-85
2022/05/23 05:51:43;;;;;;;6.60;2.70;;;;;;;15.67;58.89;98729.50;106058;1279;22555;-85
2022/05/23 05:54:33;;;;;;;9.90;3.70;;;;;;;15.79;58.84;98728.36;105308;1278;22579;-82
2022/05/23 05:57:07;;;;;;;11.90;3.80;;;;;;;15.90;58.87;98727.18;105652;1278;25239;-81
2022/05/23 05:59:34;;;;;;;10.10;4.00;;;;;;;16.06;58.73;98724.90;105665;1278;25441;-81
2022/05/23 06:02:07;;;;;;;10.00;3.70;;;;;;;16.18;58.80;98730.52;105731;1277;22727;-79
2022/05/23 06:04:35;;;;;;;11.60;3.80;;;;;;;16.34;58.78;98726.35;105814;1277;22518;-81
2022/05/23 06:13:55;;;;;;;9.60;3.60;;;;;;;16.97;58.78;98723.69;105559;1284;24296;-83
2022/05/23 06:16:36;;;;;;;7.50;2.70;;;;;;;17.17;58.67;98722.02;105184;1284;22861;-82
2022/05/23 06:19:06;;;;;;;7.20;2.60;;;;;;;17.32;58.63;98724.35;105556;1284;24263;-80
2022/05/23 06:21:41;;;;;;;7.80;2.60;;;;;;;17.48;58.31;98728.07;105581;1283;24283;-85
2022/05/23 06:24:09;;;;;;;7.20;2.40;;;;;;;17.60;58.27;98728.23;105670;1281;22543;-87
2022/05/23 06:26:53;;;;;;;6.10;2.40;;;;;;;17.73;57.98;98725.55;105904;1281;22843;-86
2022/05/23 06:29:46;;;;;;;8.30;2.70;;;;;;;17.70;57.63;98720.34;105481;1281;22555;-80
2022/05/23 06:32:42;;;;;;;7.20;2.60;;;;;;;17.66;57.54;98716.59;105284;1281;25402;-81
2022/05/23 06:35:22;;;;;;;9.40;2.60;;;;;;;17.69;57.71;98715.88;105573;1282;25380;-81
2022/05/23 06:37:53;;;;;;;7.10;2.60;;;;;;;17.81;57.91;98712.85;105565;1282;22773;-81
2022/05/23 06:40:39;;;;;;;6.50;2.80;;;;;;;18.02;57.85;98715.14;105555;1282;22536;-85
2022/05/23 06:43:40;;;;;;;10.80;2.70;;;;;;;18.22;57.73;98708.42;105282;1282;22579;-81
2022/05/23 06:46:42;;;;;;;8.60;3.10;;;;;;;18.40;57.62;98704.06;105439;1284;25245;-80
2022/05/23 06:49:28;;;;;;;8.40;2.70;;;;;;;18.53;57.45;98701.92;105667;1276;24326;-87
2022/05/23 06:52:24;;;;;;;8.70;2.40;;;;;;;18.70;57.66;98695.63;105425;1278;22628;-81
2022/05/23 06:55:14;;;;;;;8.80;2.50;;;;;;;18.81;57.41;98687.45;105825;1276;25307;-79
2022/05/23 06:57:46;;;;;;;8.00;2.40;;;;;;;18.88;57.23;98678.38;105820;1276;25235;-78
2022/05/23 07:00:20;;;;;;;7.30;2.30;;;;;;;18.93;57.05;98678.44;105967;1276;23911;-83
2022/05/23 07:03:09;;;;;;;6.20;2.30;;;;;;;19.03;57.23;98676.83;105858;1277;22574;-82
2022/05/23 07:14:22;;;;;;;7.90;2.50;;;;;;;19.46;56.78;98677.04;105893;1276;25273;-81
2022/05/23 07:16:50;;;;;;;6.20;2.50;;;;;;;19.58;56.86;98674.21;105879;1276;25300;-80
2022/05/23 07:19:24;;;;;;;6.00;2.50;;;;;;;19.67;56.74;98675.30;105842;1277;22535;-86
2022/05/23 07:21:59;;;;;;;6.40;2.80;;;;;;;19.64;56.64;98673.89;105732;1277;22570;-79
2022/05/23 07:24:32;;;;;;;7.40;2.70;;;;;;;19.66;56.61;98668.44;105680;1277;22834;-87
2022/05/23 07:27:03;;;;;;;7.10;2.40;;;;;;;19.74;56.68;98666.35;105671;1277;22567;-84
2022/05/23 07:29:33;;;;;;;10.40;2.70;;;;;;;19.88;56.62;98667.86;105752;1277;22824;-85
2022/05/23 07:32:06;;;;;;;7.10;1.90;;;;;;;20.03;56.53;98665.27;105849;1277;22752;-79
2022/05/23 07:34:33;;;;;;;6.10;2.40;;;;;;;20.16;56.42;98663.42;105655;1277;22543;-81
2022/05/23 07:37:02;;;;;;;6.90;2.00;;;;;;;20.32;56.56;98659.61;105771;1276;22564;-79
2022/05/23 07:39:29;;;;;;;7.30;2.40;;;;;;;20.48;56.32;98660.91;105695;1276;23905;-81
2022/05/23 07:42:06;;;;;;;5.80;1.90;;;;;;;20.67;56.23;98654.13;105748;1276;24974;-81
2022/05/23 07:44:35;;;;;;;7.40;2.00;;;;;;;20.82;56.00;98644.89;105682;1277;25316;-79
2022/05/23 07:47:07;;;;;;;6.00;1.80;;;;;;;20.95;55.77;98649.21;105770;1277;22619;-82
2022/05/23 07:49:38;;;;;;;7.60;1.90;;;;;;;21.08;55.75;98645.14;105669;1276;22539;-85
2022/05/23 07:52:13;;;;;;;8.80;2.90;;;;;;;21.17;55.42;98643.64;105714;1277;23100;-80
2022/05/23 08:00:51;;;;;;;5.80;1.70;;;;;;;21.30;54.95;98639.20;105732;1277;22561;-86
2022/05/23 08:03:23;;;;;;;5.00;1.70;;;;;;;21.38;54.80;98633.03;105739;1277;22546;-79
2022/05/23 08:06:05;;;;;;;6.80;2.00;;;;;;;21.39;54.48;98638.48;105800;1276;22582;-81
2022/05/23 08:08:33;;;;;;;6.70;1.40;;;;;;;21.42;54.54;98633.20;105748;1278;25452;-79
2022/05/23 08:11:01;;;;;;;5.10;1.40;;;;;;;21.50;54.40;98633.31;105681;1277;24447;-86
2022/05/23 08:13:35;;;;;;;5.20;1.20;;;;;;;21.57;54.19;98636.67;105666;1278;22707;-84
2022/05/23 08:16:08;;;;;;;4.20;1.00;;;;;;;21.64;54.17;98636.06;105698;1276;22735;-86
2022/05/23 08:18:37;;;;;;;4.30;1.30;;;;;;;21.70;53.89;98634.59;105741;1277;25504;-79
2022/05/23 08:21:09;;;;;;;7.80;1.20;;;;;;;21.79;53.88;98635.57;105708;1276;22556;-82
2022/05/23 08:23:43;;;;;;;6.10;1.40;;;;;;;21.93;54.03;98632.91;105682;1276;22558;-86
2022/05/23 08:26:15;;;;;;;5.00;1.50;;;;;;;22.09;53.63;98624.60;105725;1276;24268;-78
2022/05/23 08:28:51;;;;;;;3.70;1.30;;;;;;;22.18;53.56;98623.86;105679;1276;22626;-81
2022/05/23 08:31:22;;;;;;;3.50;1.20;;;;;;;22.20;53.37;98623.06;105739;1276;22553;-85
2022/05/23 08:34:27;;;;;;;4.10;1.20;;;;;;;22.31;53.69;98615.06;105715;1278;22579;-86
2022/05/23 08:37:05;;;;;;;4.90;1.30;;;;;;;22.52;53.19;98617.54;105730;1277;23990;-80
2022/05/23 08:39:46;;;;;;;5.70;1.60;;;;;;;22.54;52.89;98615.30;105652;1276;22685;-81
2022/05/23 08:42:29;;;;;;;6.00;1.60;;;;;;;22.56;53.13;98612.95;105830;1276;22688;-82
2022/05/23 08:45:40;;;;;;;6.40;1.60;;;;;;;22.52;52.76;98608.54;105825;1276;24274;-85
2022/05/23 08:48:23;;;;;;;4.70;1.70;;;;;;;22.51;52.85;98605.14;105751;1276;22596;-79
2022/05/23 08:51:07;;;;;;;5.30;1.60;;;;;;;22.56;52.89;98603.84;105751;1276;22590;-82
2022/05/23 08:53:59;;;;;;;6.30;1.50;;;;;;;22.53;52.79;98604.23;105851;1276;22706;-81
2022/05/23 08:56:54;;;;;;;4.10;1.30;;;;;;;22.73;52.36;98603.36;105877;1276;22576;-80
2022/05/23 08:59:35;;;;;;;3.90;1.40;;;;;;;22.87;52.23;98604.61;105704;1277;22556;-80
2022/05/23 09:02:14;;;;;;;5.00;1.30;;;;;;;22.77;51.90;98595.70;105956;1276;22545;-81
2022/05/23 09:04:58;;;;;;;6.10;1.40;;;;;;;22.58;51.91;98591.48;105915;1276;25317;-80
2022/05/23 09:07:48;;;;;;;5.50;1.40;;;;;;;22.57;52.37;98593.08;105894;1276;25285;-77
2022/05/23 09:10:54;;;;;;;4.10;1.40;;;;;;;22.71;51.78;98587.91;105774;1276;24205;-85
2022/05/23 09:13:27;;;;;;;4.10;1.00;;;;;;;22.84;51.44;98585.02;105739;1276;22611;-79
2022/05/23 09:15:59;;;;;;;4.50;1.00;;;;;;;22.92;51.54;98589.95;105839;1277;24300;-82
2022/05/23 09:18:38;;;;;;;4.50;1.20;;;;;;;23.04;51.65;98590.77;105972;1276;25354;-82
2022/05/23 09:21:09;;;;;;;6.10;1.40;;;;;;;23.09;51.27;98586.72;105798;1276;25579;-81
2022/05/23 09:23:51;;;;;;;5.30;1.30;;;;;;;23.15;51.21;98582.44;105905;1276;23034;-80
2022/05/23 09:26:29;;;;;;;3.80;1.10;;;;;;;23.33;51.05;98573.25;105732;1277;22696;-80
2022/05/23 09:28:56;;;;;;;5.10;1.00;;;;;;;23.53;51.10;98577.40;105756;1276;24398;-79
2022/05/23 09:31:52;;;;;;;4.30;1.20;;;;;;;23.68;51.12;98572.84;105763;1276;22533;-85
2022/05/23 09:34:32;;;;;;;5.00;1.20;;;;;;;23.73;50.91;98564.52;105870;1277;24286;-81
2022/05/23 09:37:18;;;;;;;6.00;1.30;;;;;;;23.73;50.28;98564.14;105913;1276;25244;-80
2022/05/23 09:40:00;;;;;;;3.90;1.30;;;;;;;23.61;50.38;98569.41;105829;1276;24203;-79
2022/05/23 09:48:13;;;;;;;4.60;1.50;;;;;;;23.62;50.26;98563.92;105820;1276;22752;-84
2022/05/23 09:50:45;;;;;;;6.10;1.20;;;;;;;23.75;49.84;98551.00;105838;1277;24187;-83
2022/05/23 09:53:26;;;;;;;7.20;1.80;;;;;;;23.93;49.71;98553.05;105771;1276;22527;-82
2022/05/23 09:55:53;;;;;;;2.70;0.90;;;;;;;24.08;49.59;98549.95;105799;1276;22568;-84
2022/05/23 09:58:34;;;;;;;4.80;1.10;;;;;;;24.04;49.60;98543.27;105743;1276;22723;-79
2022/05/23 10:01:08;;;;;;;5.20;1.40;;;;;;;24.19;49.78;98542.44;105698;1276;22620;-85
2022/05/23 10:03:37;;;;;;;5.90;1.50;;;;;;;24.16;49.52;98534.84;105864;1276;25224;-81
2022/05/23 10:06:11;;;;;;;8.10;1.40;;;;;;;24.08;49.26;98540.27;105737;1276;22531;-81
2022/05/23 10:08:46;;;;;;;4.30;1.30;;;;;;;23.91;48.71;98541.73;105997;1276;24216;-85
2022/05/23 10:11:54;;;;;;;4.90;1.50;;;;;;;23.65;48.47;98539.61;105658;1276;24364;-80
2022/05/23 10:14:23;;;;;;;5.70;1.10;;;;;;;23.48;48.55;98542.92;105979;1276;22804;-82
2022/05/23 10:16:56;;;;;;;4.30;1.00;;;;;;;23.55;48.81;98540.79;105710;1277;23941;-81
2022/05/23 10:19:31;;;;;;;4.90;1.20;;;;;;;23.71;48.94;98533.80;105716;1276;22594;-84
2022/05/23 10:22:06;;;;;;;5.30;1.10;;;;;;;23.90;48.70;98533.83;105923;1274;24256;-84
2022/05/23 10:24:36;;;;;;;4.70;0.90;;;;;;;24.02;48.25;98534.51;105867;1276;22663;-85
2022/05/23 10:27:15;;;;;;;4.50;0.90;;;;;;;24.22;48.65;98528.50;105783;1276;25674;-81
2022/05/23 10:29:54;;;;;;;4.30;1.00;;;;;;;24.41;48.31;98523.73;105851;1277;22563;-83
2022/05/23 10:32:41;;;;;;;4.50;1.10;;;;;;;24.58;48.09;98523.24;105716;1278;25615;-80
2022/05/23 10:35:17;;;;;;;5.60;1.30;;;;;;;24.62;47.82;98521.55;105780;1276;22740;-84
2022/05/23 10:37:49;;;;;;;4.30;1.00;;;;;;;24.61;47.38;98515.98;105787;1276;24264;-85
2022/05/23 10:43:20;;;;;;;3.80;1.00;;;;;;;24.60;47.45;98505.47;105957;1276;25362;-80
2022/05/23 10:46:12;;;;;;;7.60;1.00;;;;;;;24.71;47.67;98496.41;105737;1276;22532;-81
2022/05/23 10:48:43;;;;;;;3.90;0.90;;;;;;;24.84;47.30;98495.35;105756;1277;25349;-80
2022/05/23 10:51:34;;;;;;;6.20;1.20;;;;;;;24.85;47.05;98488.55;105708;1277;24065;-82
2022/05/23 10:54:39;;;;;;;4.20;1.10;;;;;;;24.84;47.12;98488.05;105971;1276;22609;-81
2022/05/23 10:57:37;;;;;;;4.10;1.00;;;;;;;24.97;47.19;98490.77;105708;1277;23903;-80
2022/05/23 11:00:23;;;;;;;4.50;1.10;;;;;;;25.08;46.92;98485.02;105456;1278;25493;-80
2022/05/23 11:03:11;;;;;;;5.70;1.10;;;;;;;25.12;46.85;98485.72;105759;1276;24246;-82
2022/05/23 11:05:55;;;;;;;4.00;1.10;;;;;;;25.13;46.69;98484.92;105698;1278;22606;-83
2022/05/23 11:08:28;;;;;;;3.80;1.00;;;;;;;25.08;46.34;98482.92;105763;1277;24308;-85
2022/05/23 11:11:43;;;;;;;3.80;0.90;;;;;;;24.98;46.27;98479.11;105826;1277;22661;-81
2022/05/23 11:14:26;;;;;;;4.40;1.10;;;;;;;24.95;46.41;98474.36;105832;1276;22557;-81
2022/05/23 11:17:19;;;;;;;5.00;1.00;;;;;;;24.91;45.97;98474.27;105835;1277;22719;-79
2022/05/23 11:20:03;;;;;;;6.00;1.00;;;;;;;24.81;45.83;98475.75;105751;1276;22598;-84
2022/05/23 11:22:35;;;;;;;2.80;1.00;;;;;;;24.69;45.98;98475.20;105701;1276;23945;-79
2022/05/23 11:25:20;;;;;;;6.00;1.00;;;;;;;24.55;45.66;98474.91;105753;1277;25346;-80
2022/05/23 11:34:29;;;;;;;4.30;1.00;;;;;;;24.66;45.34;98466.81;105168;1285;23203;-82
2022/05/23 11:40:08;;;;;;;6.40;1.30;;;;;;;24.56;45.39;98466.75;105183;1284;23454;-81
2022/05/23 11:43:26;;;;;;;6.30;1.30;;;;;;;24.61;45.22;98458.41;105301;1285;22889;-83
2022/05/23 11:46:02;;;;;;;7.10;1.00;;;;;;;24.61;45.01;98452.34;104324;1291;25385;-81
2022/05/23 11:48:53;;;;;;;2.70;0.90;;;;;;;24.63;44.97;98448.52;104416;1291;26482;-81
2022/05/23 11:51:36;;;;;;;3.70;0.90;;;;;;;24.66;44.98;98442.41;104392;1291;25240;-80
2022/05/23 11:54:50;;;;;;;4.50;1.00;;;;;;;24.80;44.89;98429.02;104382;1291;22575;-84
2022/05/23 11:57:36;;;;;;;4.30;1.00;;;;;;;24.90;44.62;98419.61;104395;1291;22632;-83
2022/05/23 12:00:34;;;;;;;3.50;0.90;;;;;;;24.91;44.59;98409.70;104150;1291;22553;-85
2022/05/23 12:03:10;;;;;;;4.00;1.00;;;;;;;25.05;44.52;98405.17;104237;1293;24243;-83
2022/05/23 12:05:41;;;;;;;4.10;1.00;;;;;;;25.16;44.19;98400.59;104341;1291;22636;-82
2022/05/23 12:08:40;;;;;;;3.90;1.00;;;;;;;25.11;44.12;98397.69;104395;1288;24620;-84
2022/05/23 12:11:21;;;;;;;4.90;1.00;;;;;;;24.99;43.82;98387.04;104826;1288;293948;-80
2022/05/23 12:13:51;;;;;;;5.30;1.20;;;;;;;25.00;43.93;98382.98;104914;1287;22600;-83
2022/05/23 12:16:22;;;;;;;4.80;1.10;;;;;;;24.91;43.54;98386.59;105054;1287;22849;-80
2022/05/23 12:19:10;;;;;;;5.80;1.10;;;;;;;24.75;43.32;98381.88;105036;1287;24549;-84
2022/05/23 12:22:00;;;;;;;;;;;;;;;;;;;;;
2022/05/23 12:24:37;;;;;;;3.50;1.00;;;;;;;24.74;43.56;98371.34;105770;1276;22603;-84
2022/05/23 12:27:28;;;;;;;5.20;1.10;;;;;;;24.73;43.30;98363.61;105834;1277;25525;-80
2022/05/23 12:30:38;;;;;;;3.90;1.00;;;;;;;24.74;43.25;98368.27;105938;1276;24438;-84
2022/05/23 12:33:32;;;;;;;;;;;;;;;;;;;;;
2022/05/23 12:37:08;;;;;;;6.10;0.80;;;;;;;24.69;42.86;98352.05;105834;1276;24239;-81
2022/05/23 12:40:36;;;;;;;;;;;;;;;;;;;;;
2022/05/23 12:44:00;;;;;;;;;;;;;;;;;;;;;
2022/05/23 12:47:05;;;;;;;6.00;0.90;;;;;;;24.35;42.98;98348.62;105469;1282;24320;-80
2022/05/23 12:50:19;;;;;;;;;;;;;;;;;;;;;
2022/05/23 12:53:38;;;;;;;2.70;0.90;;;;;;;24.26;42.59;98341.33;105555;1282;22537;-81
2022/05/23 12:57:02;;;;;;;3.80;1.20;;;;;;;24.20;42.80;98333.96;105066;1287;22562;-84
2022/05/23 13:00:14;;;;;;;4.40;1.10;;;;;;;24.30;42.71;98327.68;104369;1291;22597;-82
2022/05/23 13:03:18;;;;;;;4.40;0.80;;;;;;;24.24;42.38;98331.81;104535;1294;25325;-80
2022/05/23 13:06:17;;;;;;;6.20;1.20;;;;;;;24.12;42.49;98323.55;104427;1294;25323;-79
2022/05/23 13:08:55;;;;;;;4.80;1.10;;;;;;;24.06;42.33;98315.77;104215;1294;24124;-79
2022/05/23 13:11:38;;;;;;;4.00;0.90;;;;;;;23.98;42.41;98317.63;104367;1294;22600;-80
2022/05/23 13:14:06;;;;;;;3.40;1.10;;;;;;;23.93;42.04;98316.01;104474;1293;22572;-84
2022/05/23 13:16:47;;;;;;;;;;;;;;;;;;;;;
2022/05/23 13:22:10;;;;;;;5.50;1.10;;;;;;;23.90;42.02;98306.77;104856;1289;22595;-80
2022/05/23 13:25:00;;;;;;;3.70;0.90;;;;;;;23.93;41.89;98304.35;104571;1291;25249;-80
2022/05/23 13:27:44;;;;;;;4.30;1.00;;;;;;;23.88;41.90;98303.93;104598;1292;22743;-82
2022/05/23 13:30:27;;;;;;;5.80;1.50;;;;;;;23.80;41.83;98295.91;104475;1291;22563;-79
2022/05/23 13:33:43;;;;;;;3.40;1.10;;;;;;;23.75;41.86;98295.75;105207;1283;22540;-84
2022/05/23 13:36:14;;;;;;;5.70;1.00;;;;;;;23.71;41.46;98290.69;105877;1277;25395;-80
2022/05/23 13:39:00;;;;;;;5.00;1.00;;;;;;;23.70;41.90;98285.57;105899;1277;25452;-80
2022/05/23 13:41:29;;;;;;;4.70;1.00;;;;;;;23.76;41.72;98285.10;105895;1277;23945;-80
2022/05/23 13:43:56;;;;;;;5.10;1.20;;;;;;;23.81;41.65;98283.88;105975;1276;25272;-81
2022/05/23 13:46:40;;;;;;;4.70;1.00;;;;;;;23.80;41.37;98282.20;105884;1276;24258;-82
2022/05/23 13:49:18;;;;;;;6.30;1.20;;;;;;;23.86;41.59;98274.30;105945;1277;22541;-81
2022/05/23 13:51:55;;;;;;;4.20;1.00;;;;;;;23.97;41.72;98273.58;105960;1276;25244;-81
2022/05/23 13:54:34;;;;;;;5.60;1.00;;;;;;;24.08;41.76;98269.67;106092;1276;22559;-83
2022/05/23 13:57:22;;;;;;;3.30;1.00;;;;;;;24.12;41.37;98270.26;105963;1276;25255;-81
2022/05/23 14:00:17;;;;;;;5.50;1.10;;;;;;;24.24;41.73;98262.02;105710;1276;22888;-79
2022/05/23 14:02:55;;;;;;;6.50;1.10;;;;;;;24.41;41.43;98262.29;106109;1276;22721;-81
2022/05/23 14:05:29;;;;;;;4.30;0.90;;;;;;;24.50;41.27;98265.77;106127;1276;24307;-81
2022/05/23 14:07:59;;;;;;;2.00;0.80;;;;;;;24.40;41.12;98262.50;106040;1277;25479;-81
2022/05/23 14:10:30;;;;;;;4.70;0.90;;;;;;;24.30;41.02;98264.41;105911;1277;22621;-80
2022/05/23 14:13:10;;;;;;;4.20;1.00;;;;;;;24.27;41.22;98257.00;105882;1277;24274;-82
2022/05/23 14:15:45;;;;;;;3.60;1.00;;;;;;;24.44;41.25;98261.27;106141;1274;24267;-80
2022/05/23 14:18:17;;;;;;;5.70;0.90;;;;;;;24.50;41.13;98254.69;105900;1276;22545;-78
2022/05/23 14:20:48;;;;;;;5.80;1.20;;;;;;;24.45;40.72;98250.44;105843;1279;24268;-83
2022/05/23 14:23:25;;;;;;;3.20;1.00;;;;;;;24.73;41.21;98256.92;105827;1276;25238;-82
2022/05/23 14:25:59;;;;;;;4.90;1.30;;;;;;;25.20;41.03;98260.92;105762;1277;25632;-79
2022/05/23 14:29:10;;;;;;;4.60;0.90;;;;;;;25.47;40.76;98256.38;106025;1276;22577;-82
2022/05/23 14:31:46;;;;;;;3.80;0.90;;;;;;;25.47;40.62;98249.64;105837;1276;23071;-79